Duncombe, Iowa
Current Conditions -  °F | °C
As of 1:55 PM on Sunday 21 Dec 2014 (Local Time) from KEBS Reporting Station
Haze Haze  
Wind Chill: 30°   Ceiling: 700
Heat Index: 39°   Visibility: 5mi
Dew Point: 37°   Wind: 18mph
Humidity: 93%   Direction: 180°S
Pressure: 29.77"   Gusts: NA
Location:  42.47°N, 93.99°W
Report Text: KEBS 211955Z AUTO 18016KT 5SM BR OVC007 04/03 A2977 RMK AO2
Loading
Personal Weather Stations






























Interactive Weather Map New forecast layout! Learn more

10-Day Weather Forecast

Advertisements
Track Severe Weather on mobile